Time;durP1;ratioP1;P1;durP2;ratioP2;P2;SDS_P1;SDS_P2;PMS_P1;PMS_P2;Temp;Humidity;BMP_temperature;BMP_pressure;BME280_temperature;BME280_humidity;BME280_pressure;Samples;Min_cycle;Max_cycle;Signal;HPM_P1;HPM_P2
2023/06/07 00:00:08;;;;;;;15.63;5.43;;;;;;;18.18;100.00;101519.41;5013129;28;20100;-72
2023/06/07 00:02:36;;;;;;;17.90;5.75;;;;;;;18.16;100.00;101523.91;5008175;28;20054;-72
2023/06/07 00:05:09;;;;;;;13.88;5.38;;;;;;;18.10;100.00;101520.06;5005429;28;20058;-73
2023/06/07 00:07:36;;;;;;;15.85;5.97;;;;;;;18.04;100.00;101524.69;5007221;28;20063;-72
2023/06/07 00:10:03;;;;;;;14.25;5.25;;;;;;;18.05;100.00;101523.44;5003334;28;20536;-73
2023/06/07 00:12:30;;;;;;;16.73;5.47;;;;;;;17.95;100.00;101513.31;5008321;28;20591;-72
2023/06/07 00:14:57;;;;;;;12.88;5.38;;;;;;;18.03;100.00;101521.09;5015814;28;20452;-73
2023/06/07 00:17:24;;;;;;;16.52;5.68;;;;;;;18.04;100.00;101521.88;5006859;28;20073;-73
2023/06/07 00:19:52;;;;;;;13.57;6.00;;;;;;;18.05;100.00;101527.03;5015908;28;20128;-73
2023/06/07 00:22:19;;;;;;;14.68;5.25;;;;;;;18.03;100.00;101526.72;5011605;28;20156;-73
2023/06/07 00:24:46;;;;;;;14.57;5.40;;;;;;;18.02;100.00;101530.00;5006030;28;20085;-71
2023/06/07 00:27:15;;;;;;;18.05;5.72;;;;;;;17.99;100.00;101536.50;5016070;28;20049;-72
2023/06/07 00:29:42;;;;;;;15.65;4.90;;;;;;;17.93;100.00;101527.00;5008126;28;20129;-71
2023/06/07 00:32:08;;;;;;;17.75;5.97;;;;;;;17.90;100.00;101523.06;5009758;28;20057;-72
2023/06/07 00:34:35;;;;;;;15.02;5.05;;;;;;;17.91;100.00;101523.84;5013596;28;20055;-71
2023/06/07 00:37:01;;;;;;;14.57;5.25;;;;;;;17.90;100.00;101527.91;5010084;28;20113;-72
2023/06/07 00:39:28;;;;;;;14.20;5.47;;;;;;;17.88;100.00;101533.19;5025945;28;20095;-72
2023/06/07 00:41:55;;;;;;;16.60;6.22;;;;;;;17.87;100.00;101528.78;5002437;28;20128;-73
2023/06/07 00:44:22;;;;;;;16.75;5.75;;;;;;;17.87;100.00;101523.19;5007799;28;20045;-72
2023/06/07 00:46:51;;;;;;;20.27;6.38;;;;;;;17.84;100.00;101524.06;5022415;28;20052;-74
2023/06/07 00:49:18;;;;;;;15.30;5.65;;;;;;;17.80;100.00;101527.00;5012338;28;20084;-73
2023/06/07 00:51:45;;;;;;;15.00;5.57;;;;;;;17.77;100.00;101524.28;5016271;28;20073;-72
2023/06/07 00:54:17;;;;;;;15.05;4.97;;;;;;;17.75;100.00;101529.59;5010689;28;20056;-73
2023/06/07 00:56:50;;;;;;;15.55;5.65;;;;;;;17.73;100.00;101537.66;5008271;28;20052;-73
2023/06/07 00:59:20;;;;;;;16.13;4.93;;;;;;;17.71;100.00;101535.31;5002280;28;20119;-73
2023/06/07 01:01:51;;;;;;;13.80;5.60;;;;;;;17.68;100.00;101536.19;5013174;28;20408;-72
2023/06/07 01:04:23;;;;;;;18.05;5.70;;;;;;;17.66;100.00;101529.44;5029864;28;20050;-72
2023/06/07 01:06:53;;;;;;;14.85;5.63;;;;;;;17.59;100.00;101538.09;5001462;28;20050;-74
2023/06/07 01:09:21;;;;;;;14.63;4.68;;;;;;;17.61;100.00;101533.59;5004385;28;20046;-73
2023/06/07 01:11:50;;;;;;;19.15;6.22;;;;;;;17.59;100.00;101527.66;5010117;28;20049;-72
2023/06/07 01:14:19;;;;;;;14.82;5.28;;;;;;;17.53;100.00;101528.63;5005173;28;20463;-72
2023/06/07 01:16:50;;;;;;;15.77;5.63;;;;;;;17.55;100.00;101532.56;5014864;28;20049;-71
2023/06/07 01:19:34;;;;;;;14.68;5.20;;;;;;;17.54;100.00;101527.38;5006328;28;20139;-72
2023/06/07 01:22:25;;;;;;;15.98;5.03;;;;;;;17.52;100.00;101529.88;5006125;28;20423;-71
2023/06/07 01:25:04;;;;;;;17.45;5.78;;;;;;;17.51;100.00;101528.28;5010045;28;21310;-72
2023/06/07 01:27:31;;;;;;;14.80;5.18;;;;;;;17.51;100.00;101522.69;5007250;28;20132;-72
2023/06/07 01:29:59;;;;;;;15.90;5.50;;;;;;;17.41;100.00;101518.16;5006783;28;20146;-72
2023/06/07 01:32:26;;;;;;;14.07;5.72;;;;;;;17.39;100.00;101524.97;4998042;28;20143;-73
2023/06/07 01:34:54;;;;;;;17.10;5.47;;;;;;;17.37;100.00;101526.66;5018084;28;20068;-72
2023/06/07 01:37:21;;;;;;;15.77;5.18;;;;;;;17.32;100.00;101516.00;5015149;28;20791;-73
2023/06/07 01:39:50;;;;;;;18.30;6.20;;;;;;;17.29;100.00;101522.50;5020791;28;20044;-73
2023/06/07 01:42:17;;;;;;;15.35;5.22;;;;;;;17.29;100.00;101517.63;5014245;28;20152;-71
2023/06/07 01:44:46;;;;;;;18.20;5.88;;;;;;;17.26;100.00;101523.38;5013684;28;20144;-73
2023/06/07 01:47:14;;;;;;;15.10;5.28;;;;;;;17.24;100.00;101521.00;5005818;28;20124;-74
2023/06/07 01:49:41;;;;;;;13.15;4.97;;;;;;;17.24;100.00;101515.38;5003738;28;20141;-72
2023/06/07 01:52:08;;;;;;;14.98;5.80;;;;;;;17.17;100.00;101509.97;5006513;28;20050;-71
2023/06/07 01:54:35;;;;;;;14.73;5.60;;;;;;;17.06;100.00;101501.03;5006580;28;20127;-72
2023/06/07 01:57:11;;;;;;;17.88;5.18;;;;;;;17.04;100.00;101509.09;5005491;28;20144;-71
2023/06/07 01:59:48;;;;;;;12.18;5.13;;;;;;;17.02;100.00;101505.94;5004719;28;20046;-72
2023/06/07 02:02:32;;;;;;;18.60;6.40;;;;;;;17.02;100.00;101503.13;5015955;28;20127;-70
2023/06/07 02:05:03;;;;;;;17.73;6.10;;;;;;;16.98;100.00;101502.44;5010208;28;20141;-72
2023/06/07 02:07:35;;;;;;;16.23;6.45;;;;;;;16.99;100.00;101501.22;5011917;28;20053;-72
2023/06/07 02:10:03;;;;;;;14.65;5.97;;;;;;;16.95;100.00;101503.31;5009137;28;20097;-72
2023/06/07 02:12:31;;;;;;;16.02;5.95;;;;;;;16.93;100.00;101502.97;5014182;28;20053;-70
2023/06/07 02:15:00;;;;;;;15.13;6.15;;;;;;;16.88;100.00;101494.31;5010278;28;20053;-71
2023/06/07 02:17:28;;;;;;;16.20;5.80;;;;;;;16.86;100.00;101502.38;5006723;28;20045;-71
2023/06/07 02:19:55;;;;;;;19.52;5.80;;;;;;;16.82;100.00;101502.50;5015098;28;20058;-72
2023/06/07 02:22:22;;;;;;;18.15;6.32;;;;;;;16.79;100.00;101500.56;5007214;28;20129;-73
2023/06/07 02:24:51;;;;;;;17.02;5.90;;;;;;;16.79;100.00;101503.38;5010588;28;20085;-72
2023/06/07 02:27:17;;;;;;;17.48;5.72;;;;;;;16.77;100.00;101497.41;5020076;28;20128;-72
2023/06/07 02:29:44;;;;;;;18.60;6.00;;;;;;;16.77;100.00;101499.41;5015301;28;20103;-70
2023/06/07 02:32:10;;;;;;;17.77;6.97;;;;;;;16.70;100.00;101493.97;5010045;28;20080;-71
2023/06/07 02:34:39;;;;;;;16.58;5.75;;;;;;;16.66;100.00;101496.91;5011011;28;20558;-71
2023/06/07 02:37:05;;;;;;;16.02;5.90;;;;;;;16.63;100.00;101497.78;5009690;28;20058;-74
2023/06/07 02:39:32;;;;;;;15.13;5.70;;;;;;;16.63;100.00;101497.78;5010054;28;20050;-72
2023/06/07 02:41:59;;;;;;;14.32;5.95;;;;;;;16.58;100.00;101501.09;5023560;28;20104;-73
2023/06/07 02:44:25;;;;;;;16.70;6.43;;;;;;;16.59;100.00;101497.06;5018108;28;20054;-71
2023/06/07 02:46:52;;;;;;;14.48;5.70;;;;;;;16.62;100.00;101501.03;5026068;28;20083;-73
2023/06/07 02:49:18;;;;;;;16.02;6.22;;;;;;;16.57;100.00;101505.13;5010661;28;20096;-71
2023/06/07 02:51:45;;;;;;;16.90;6.10;;;;;;;16.57;100.00;101502.34;5018731;28;20053;-73
2023/06/07 02:54:13;;;;;;;18.60;6.43;;;;;;;16.50;100.00;101499.72;5011841;28;20058;-72
2023/06/07 02:56:39;;;;;;;17.13;5.78;;;;;;;16.50;100.00;101502.50;5010141;28;20171;-72
2023/06/07 02:59:06;;;;;;;16.70;6.53;;;;;;;16.52;100.00;101502.06;5007337;28;20485;-72
2023/06/07 03:01:33;;;;;;;17.30;6.30;;;;;;;16.52;100.00;101504.88;5008414;28;20046;-71
2023/06/07 03:04:00;;;;;;;24.05;6.53;;;;;;;16.49;100.00;101502.94;5009598;28;20061;-72
2023/06/07 03:06:29;;;;;;;15.70;5.78;;;;;;;16.48;100.00;101499.34;5013803;28;20057;-72
2023/06/07 03:08:56;;;;;;;16.30;5.55;;;;;;;16.48;100.00;101504.19;5009796;28;20056;-72
2023/06/07 03:11:23;;;;;;;15.27;5.80;;;;;;;16.45;100.00;101494.63;5007411;28;20128;-72
2023/06/07 03:13:50;;;;;;;19.98;7.75;;;;;;;16.46;100.00;101504.63;5011808;28;20418;-72
2023/06/07 03:16:16;;;;;;;17.70;6.10;;;;;;;16.41;100.00;101495.94;5017793;28;20060;-71
2023/06/07 03:18:43;;;;;;;19.02;6.47;;;;;;;16.39;100.00;101493.56;5009296;28;20053;-72
2023/06/07 03:21:09;;;;;;;15.43;6.88;;;;;;;16.38;100.00;101491.22;5012459;28;20467;-73
2023/06/07 03:23:36;;;;;;;19.67;6.78;;;;;;;16.39;100.00;101498.41;5009328;28;20046;-72
2023/06/07 03:26:02;;;;;;;16.60;7.13;;;;;;;16.37;100.00;101495.25;5009610;28;20054;-72
2023/06/07 03:28:29;;;;;;;16.92;6.63;;;;;;;16.34;100.00;101493.31;5006418;28;20077;-73
2023/06/07 03:30:56;;;;;;;18.40;6.53;;;;;;;16.35;100.00;101494.88;5016243;28;20053;-71
2023/06/07 03:33:23;;;;;;;17.00;5.72;;;;;;;16.21;100.00;101493.22;5009336;28;20453;-72
2023/06/07 03:35:52;;;;;;;18.00;6.57;;;;;;;16.26;100.00;101501.13;5017395;28;20073;-73
2023/06/07 03:38:18;;;;;;;16.67;6.55;;;;;;;16.25;100.00;101504.31;5017189;28;20145;-72
2023/06/07 03:40:45;;;;;;;21.55;7.47;;;;;;;16.15;100.00;101500.56;5017703;28;20050;-72
2023/06/07 03:43:11;;;;;;;16.80;7.13;;;;;;;16.11;100.00;101505.47;5030778;28;20136;-72
2023/06/07 03:45:38;;;;;;;15.98;6.88;;;;;;;16.09;100.00;101512.72;5007763;28;20172;-72
2023/06/07 03:48:04;;;;;;;15.98;6.75;;;;;;;16.03;100.00;101514.50;5015552;28;20132;-71
2023/06/07 03:50:31;;;;;;;16.92;6.97;;;;;;;15.94;100.00;101515.09;5008025;28;20045;-73
2023/06/07 03:52:58;;;;;;;20.00;7.38;;;;;;;15.88;100.00;101516.81;5008055;28;20104;-70
2023/06/07 03:55:24;;;;;;;21.00;9.45;;;;;;;15.79;100.00;101516.63;5017257;28;20133;-72
2023/06/07 03:57:51;;;;;;;18.50;7.50;;;;;;;15.74;100.00;101507.94;5010837;28;20088;-73
2023/06/07 04:00:18;;;;;;;17.90;7.10;;;;;;;15.71;100.00;101514.41;5008221;28;20042;-72
2023/06/07 04:02:45;;;;;;;26.42;8.18;;;;;;;15.64;100.00;101520.97;5019086;28;20049;-73
2023/06/07 04:05:12;;;;;;;21.92;7.07;;;;;;;15.55;100.00;101519.94;5018600;28;20065;-71
2023/06/07 04:07:40;;;;;;;20.13;7.13;;;;;;;15.51;100.00;101511.63;5020623;28;20049;-72
2023/06/07 04:10:07;;;;;;;16.67;6.95;;;;;;;15.53;100.00;101514.75;5008134;28;20472;-72
2023/06/07 04:12:33;;;;;;;19.73;7.50;;;;;;;15.50;100.00;101528.88;5015392;28;20576;-73
2023/06/07 04:15:00;;;;;;;21.45;8.00;;;;;;;15.46;100.00;101520.53;5016399;28;20054;-72
2023/06/07 04:17:26;;;;;;;20.65;7.57;;;;;;;15.42;100.00;101528.22;5018098;28;20100;-73
2023/06/07 04:19:56;;;;;;;22.15;7.57;;;;;;;15.39;100.00;101517.09;5012442;28;20562;-73
2023/06/07 04:22:24;;;;;;;19.00;7.05;;;;;;;15.39;100.00;101509.47;5008757;28;20108;-74
2023/06/07 04:24:51;;;;;;;20.45;7.88;;;;;;;15.40;100.00;101525.06;5014790;28;21221;-72
2023/06/07 04:27:18;;;;;;;21.38;7.60;;;;;;;15.40;100.00;101522.28;5007053;28;20052;-73
2023/06/07 04:29:49;;;;;;;21.85;8.05;;;;;;;15.39;100.00;101519.91;5007939;28;20049;-73
2023/06/07 04:32:18;;;;;;;20.88;8.00;;;;;;;15.37;100.00;101523.13;5010720;28;20585;-72
2023/06/07 04:34:46;;;;;;;17.50;7.72;;;;;;;15.34;100.00;101518.34;5014123;28;20046;-73
2023/06/07 04:37:13;;;;;;;17.42;7.32;;;;;;;15.32;100.00;101522.81;5006421;28;20062;-72
2023/06/07 04:39:40;;;;;;;20.30;8.80;;;;;;;15.31;100.00;101524.00;5005830;28;20084;-73
2023/06/07 04:42:09;;;;;;;17.98;7.45;;;;;;;15.30;100.00;101523.25;5023842;28;20057;-74
2023/06/07 04:44:36;;;;;;;21.05;7.65;;;;;;;15.29;100.00;101524.44;5009185;28;20057;-73
2023/06/07 04:47:04;;;;;;;21.70;8.02;;;;;;;15.26;100.00;101525.31;5016387;28;20076;-70
2023/06/07 04:49:38;;;;;;;19.67;8.70;;;;;;;15.23;100.00;101531.78;5013338;28;20049;-73
2023/06/07 04:52:05;;;;;;;22.00;7.78;;;;;;;15.23;100.00;101529.00;5006998;28;20057;-71
2023/06/07 04:54:32;;;;;;;20.77;7.38;;;;;;;15.11;100.00;101528.81;5014503;28;20088;-71
2023/06/07 04:57:00;;;;;;;18.48;7.65;;;;;;;15.11;100.00;101534.41;5016148;28;20499;-71
2023/06/07 04:59:34;;;;;;;19.92;7.75;;;;;;;15.03;100.00;101534.53;5023882;28;20476;-71
2023/06/07 05:02:01;;;;;;;21.52;7.22;;;;;;;15.11;100.00;101537.22;5023348;28;20431;-73
2023/06/07 05:04:30;;;;;;;20.10;8.45;;;;;;;15.10;100.00;101539.25;5008219;28;20053;-70
2023/06/07 05:06:58;;;;;;;20.63;8.88;;;;;;;15.07;100.00;101534.50;5004946;28;20332;-73
2023/06/07 05:09:34;;;;;;;19.48;8.77;;;;;;;15.08;100.00;101533.25;5013184;28;20054;-72
2023/06/07 05:12:03;;;;;;;20.02;7.90;;;;;;;15.07;100.00;101537.28;5007495;28;20060;-74
2023/06/07 05:14:30;;;;;;;20.95;8.13;;;;;;;15.05;100.00;101534.13;5019870;28;20050;-72
2023/06/07 05:16:56;;;;;;;20.33;8.13;;;;;;;15.02;100.00;101535.78;5010466;28;20085;-73
2023/06/07 05:19:23;;;;;;;20.02;7.95;;;;;;;15.00;100.00;101529.78;5011585;28;20132;-71
2023/06/07 05:21:50;;;;;;;28.00;8.88;;;;;;;14.98;100.00;101534.25;5016004;28;20141;-70
2023/06/07 05:24:17;;;;;;;21.10;8.70;;;;;;;14.98;100.00;101539.84;5025147;28;20057;-73
2023/06/07 05:26:43;;;;;;;22.02;8.02;;;;;;;14.97;100.00;101532.69;5011669;28;20129;-74
2023/06/07 05:29:10;;;;;;;22.27;8.30;;;;;;;14.94;100.00;101528.72;5010057;28;20104;-73
2023/06/07 05:31:36;;;;;;;21.80;8.10;;;;;;;14.94;100.00;101533.53;5013032;28;20041;-73
2023/06/07 05:34:03;;;;;;;19.15;8.07;;;;;;;14.90;100.00;101538.41;5006398;28;20057;-72
2023/06/07 05:36:30;;;;;;;19.35;8.35;;;;;;;14.88;100.00;101543.63;5011974;28;20045;-73
2023/06/07 05:38:56;;;;;;;24.17;8.45;;;;;;;14.87;100.00;101540.06;5012509;28;20501;-73
2023/06/07 05:41:23;;;;;;;24.65;9.15;;;;;;;14.85;100.00;101550.09;5009151;28;20041;-72
2023/06/07 05:43:49;;;;;;;20.58;8.85;;;;;;;14.88;100.00;101557.63;5021286;28;20065;-72
2023/06/07 05:46:16;;;;;;;21.98;8.23;;;;;;;14.87;100.00;101559.66;5010337;28;20124;-72
2023/06/07 05:48:43;;;;;;;22.63;8.15;;;;;;;14.81;100.00;101543.75;5019654;28;20156;-72
2023/06/07 05:51:10;;;;;;;18.60;8.10;;;;;;;14.79;100.00;101555.38;5002427;28;20104;-71
2023/06/07 05:53:37;;;;;;;26.25;9.00;;;;;;;14.82;100.00;101560.13;5000033;28;20368;-75
2023/06/07 05:56:03;;;;;;;22.60;10.10;;;;;;;14.82;100.00;101560.13;5024637;28;20053;-69
2023/06/07 05:58:31;;;;;;;25.58;9.48;;;;;;;14.75;100.00;101563.06;5011718;28;20073;-71
2023/06/07 06:00:58;;;;;;;20.38;9.35;;;;;;;14.73;100.00;101562.72;5017910;28;20130;-72
2023/06/07 06:03:25;;;;;;;22.70;9.98;;;;;;;14.68;100.00;101574.38;5009651;28;20060;-71
2023/06/07 06:05:55;;;;;;;21.13;8.82;;;;;;;14.66;100.00;101576.03;5012270;28;20168;-72
2023/06/07 06:08:22;;;;;;;20.65;8.48;;;;;;;14.66;100.00;101570.44;5023415;28;20057;-71
2023/06/07 06:10:48;;;;;;;19.70;8.45;;;;;;;14.67;100.00;101575.59;5026199;28;20072;-70
2023/06/07 06:13:15;;;;;;;27.02;9.85;;;;;;;14.70;100.00;101573.94;5019037;28;20049;-71
2023/06/07 06:15:43;;;;;;;27.10;11.00;;;;;;;14.67;100.00;101572.00;5015810;28;20053;-70
2023/06/07 06:18:09;;;;;;;19.75;8.27;;;;;;;14.67;100.00;101569.19;5017393;28;20049;-69
2023/06/07 06:20:36;;;;;;;21.85;8.90;;;;;;;14.65;100.00;101571.66;5016766;28;20049;-71
2023/06/07 06:23:03;;;;;;;24.35;8.15;;;;;;;14.65;100.00;101566.81;5011470;28;20049;-71
2023/06/07 06:25:30;;;;;;;21.15;9.10;;;;;;;14.62;100.00;101575.31;5017517;28;20141;-72
2023/06/07 06:27:57;;;;;;;25.10;9.35;;;;;;;14.54;100.00;101582.22;5004024;28;20046;-74
2023/06/07 06:30:26;;;;;;;23.50;9.73;;;;;;;14.56;100.00;101586.16;5008563;28;20050;-71
2023/06/07 06:32:53;;;;;;;24.80;9.00;;;;;;;14.52;100.00;101584.66;5017775;28;20061;-72
2023/06/07 06:35:20;;;;;;;21.02;8.77;;;;;;;14.47;100.00;101587.91;5010727;28;22051;-69
2023/06/07 06:37:46;;;;;;;21.23;9.15;;;;;;;14.45;100.00;101585.53;5010417;28;20053;-71
2023/06/07 06:40:13;;;;;;;20.80;8.63;;;;;;;14.45;100.00;101588.34;5009700;28;20176;-72
2023/06/07 06:42:39;;;;;;;25.63;9.77;;;;;;;14.43;100.00;101589.97;5014963;28;20046;-72
2023/06/07 06:45:06;;;;;;;25.45;10.45;;;;;;;14.45;100.00;101602.31;5011916;28;20136;-72
2023/06/07 06:47:35;;;;;;;19.27;8.63;;;;;;;14.45;100.00;101607.91;5012884;28;20068;-71
2023/06/07 06:50:02;;;;;;;23.83;9.35;;;;;;;14.45;100.00;101615.53;5015242;28;20056;-71
2023/06/07 06:52:34;;;;;;;22.40;9.70;;;;;;;14.44;100.00;101611.13;5009711;28;20115;-73
2023/06/07 06:55:01;;;;;;;21.30;9.70;;;;;;;14.46;100.00;101611.53;5009808;28;20618;-71
2023/06/07 06:57:28;;;;;;;22.60;9.73;;;;;;;14.49;100.00;101621.88;5013868;28;20045;-73
2023/06/07 06:59:54;;;;;;;26.42;10.27;;;;;;;14.50;100.00;101623.44;5008640;28;20061;-73
2023/06/07 07:02:21;;;;;;;22.33;10.63;;;;;;;14.48;100.00;101628.66;5021455;28;20095;-72
2023/06/07 07:04:48;;;;;;;26.10;10.70;;;;;;;14.44;100.00;101630.72;5020528;28;20041;-73
2023/06/07 07:07:15;;;;;;;23.73;10.02;;;;;;;14.51;100.00;101630.63;5017595;28;20058;-71
2023/06/07 07:09:41;;;;;;;20.35;10.45;;;;;;;14.57;100.00;101629.75;5018642;28;20527;-73
2023/06/07 07:12:08;;;;;;;24.75;11.57;;;;;;;14.60;100.00;101626.09;5008941;28;20153;-72
2023/06/07 07:14:35;;;;;;;29.17;11.38;;;;;;;14.62;100.00;101626.44;5008573;28;20049;-72
2023/06/07 07:17:02;;;;;;;24.90;10.77;;;;;;;14.61;100.00;101624.06;5009577;28;20049;-73
2023/06/07 07:19:28;;;;;;;27.65;10.38;;;;;;;14.57;100.00;101632.53;5015575;28;20061;-72
2023/06/07 07:21:55;;;;;;;22.30;11.13;;;;;;;14.56;100.00;101630.16;5018033;28;20381;-70
2023/06/07 07:24:21;;;;;;;22.08;10.45;;;;;;;14.54;100.00;101636.19;5017314;28;20080;-73
2023/06/07 07:26:48;;;;;;;28.55;10.75;;;;;;;14.48;100.00;101637.84;5015855;28;20140;-73
2023/06/07 07:29:15;;;;;;;23.65;11.23;;;;;;;14.52;100.00;101638.59;5011620;28;20183;-71
2023/06/07 07:31:41;;;;;;;21.33;10.48;;;;;;;14.52;100.00;101649.00;5014715;28;20049;-74
2023/06/07 07:34:10;;;;;;;25.58;10.57;;;;;;;14.48;100.00;101649.06;5017157;28;20839;-72
2023/06/07 07:36:38;;;;;;;26.58;10.75;;;;;;;14.42;100.00;101652.75;5016274;28;20068;-71
2023/06/07 07:39:05;;;;;;;23.73;11.40;;;;;;;14.38;100.00;101655.56;5009990;28;20058;-71
2023/06/07 07:41:32;;;;;;;30.23;11.23;;;;;;;14.41;100.00;101657.50;5015989;28;20069;-70
2023/06/07 07:43:59;;;;;;;23.42;11.60;;;;;;;14.44;100.00;101648.31;5017082;28;20432;-71
2023/06/07 07:46:26;;;;;;;27.73;11.52;;;;;;;14.44;100.00;101655.91;5006672;28;20495;-71
2023/06/07 07:48:53;;;;;;;25.38;11.40;;;;;;;14.43;100.00;101655.13;5017281;28;20590;-71
2023/06/07 07:51:20;;;;;;;22.92;11.27;;;;;;;14.45;100.00;101661.09;5008636;28;20073;-71
2023/06/07 07:53:47;;;;;;;24.85;12.20;;;;;;;14.36;100.00;101666.41;5009850;28;20054;-70
2023/06/07 07:56:13;;;;;;;23.80;11.18;;;;;;;14.31;100.00;101657.66;5000929;28;20534;-70
2023/06/07 07:58:40;;;;;;;24.45;11.88;;;;;;;14.30;100.00;101661.66;5009736;28;20061;-70
2023/06/07 08:01:08;;;;;;;28.33;12.85;;;;;;;14.38;100.00;101658.34;5007529;28;20088;-69
2023/06/07 08:03:35;;;;;;;24.83;12.77;;;;;;;14.38;100.00;101640.78;5022224;28;20125;-69
2023/06/07 08:06:03;;;;;;;28.92;14.00;;;;;;;14.40;100.00;101632.75;5012310;28;20053;-70
2023/06/07 08:08:29;;;;;;;25.45;12.50;;;;;;;14.46;100.00;101628.31;5021430;28;20041;-69
2023/06/07 08:10:57;;;;;;;25.45;11.93;;;;;;;14.54;100.00;101626.97;5011673;28;20595;-70
2023/06/07 08:13:23;;;;;;;23.10;11.10;;;;;;;14.56;100.00;101624.56;5008866;28;20061;-71
2023/06/07 08:15:50;;;;;;;27.90;12.45;;;;;;;14.59;100.00;101635.69;5007518;28;20077;-71
2023/06/07 08:18:17;;;;;;;28.77;12.90;;;;;;;14.58;100.00;101628.50;5016981;28;20045;-71
2023/06/07 08:20:44;;;;;;;29.13;12.68;;;;;;;14.64;100.00;101631.63;5013344;28;20046;-74
2023/06/07 08:23:11;;;;;;;27.27;13.63;;;;;;;14.69;100.00;101628.34;5004296;28;20109;-70
2023/06/07 08:25:38;;;;;;;29.08;13.52;;;;;;;14.77;100.00;101629.81;5003503;28;20054;-71
2023/06/07 08:28:04;;;;;;;27.75;12.95;;;;;;;14.82;100.00;101644.13;5012355;28;20084;-71
2023/06/07 08:30:31;;;;;;;26.92;11.93;;;;;;;14.87;100.00;101638.06;5010086;28;20132;-71
2023/06/07 08:32:58;;;;;;;31.60;13.15;;;;;;;14.86;100.00;101632.88;5010558;28;20053;-71
2023/06/07 08:35:25;;;;;;;26.58;12.35;;;;;;;14.90;100.00;101639.22;5013443;28;20053;-71
2023/06/07 08:37:51;;;;;;;27.63;11.60;;;;;;;14.91;100.00;101646.38;5008021;28;20053;-71
2023/06/07 08:40:19;;;;;;;25.55;11.90;;;;;;;14.91;100.00;101644.38;5009307;28;20155;-72
2023/06/07 08:42:46;;;;;;;28.45;12.52;;;;;;;14.91;100.00;101641.59;5008740;28;20103;-70
2023/06/07 08:45:15;;;;;;;29.05;14.00;;;;;;;14.96;100.00;101648.72;5014207;28;20163;-73
2023/06/07 08:47:44;;;;;;;27.25;13.23;;;;;;;15.01;100.00;101645.41;5010725;28;20049;-72
2023/06/07 08:50:14;;;;;;;27.05;12.75;;;;;;;15.14;100.00;101649.19;5011057;28;20736;-71
2023/06/07 08:52:48;;;;;;;25.65;13.13;;;;;;;15.31;100.00;101648.09;5010707;28;20158;-71
2023/06/07 08:55:14;;;;;;;27.35;13.77;;;;;;;15.44;100.00;101657.50;5010182;28;20058;-73
2023/06/07 08:57:41;;;;;;;27.70;12.55;;;;;;;15.47;100.00;101650.22;5012925;28;20459;-71
2023/06/07 09:00:08;;;;;;;25.25;11.48;;;;;;;15.46;100.00;101651.47;5009823;28;20160;-72
2023/06/07 09:02:36;;;;;;;27.77;12.13;;;;;;;15.57;100.00;101655.66;5004991;28;20069;-71
2023/06/07 09:05:05;;;;;;;26.58;12.60;;;;;;;15.71;100.00;101658.16;5007974;28;20136;-70
2023/06/07 09:07:33;;;;;;;24.20;12.98;;;;;;;15.71;100.00;101649.75;5014597;28;20054;-68
2023/06/07 09:09:59;;;;;;;32.70;12.48;;;;;;;15.69;100.00;101651.41;5006143;28;20053;-70
2023/06/07 09:12:26;;;;;;;28.50;13.25;;;;;;;15.73;100.00;101660.53;5006246;28;20127;-71
2023/06/07 09:14:53;;;;;;;30.25;12.38;;;;;;;15.77;100.00;101667.66;5012841;28;20439;-71
2023/06/07 09:17:20;;;;;;;25.92;12.25;;;;;;;15.82;100.00;101667.16;5004943;28;20116;-70
2023/06/07 09:19:49;;;;;;;26.23;12.40;;;;;;;15.87;100.00;101668.69;5008192;28;20496;-71
2023/06/07 09:22:23;;;;;;;29.67;13.80;;;;;;;15.91;100.00;101661.78;5012865;28;20050;-69
2023/06/07 09:24:50;;;;;;;28.05;12.98;;;;;;;15.99;100.00;101660.41;5020026;28;20379;-71
2023/06/07 09:27:27;;;;;;;25.15;12.65;;;;;;;16.04;100.00;101662.69;5008195;28;20136;-70
2023/06/07 09:30:02;;;;;;;30.75;13.95;;;;;;;16.07;100.00;101653.41;5006068;28;20058;-68
2023/06/07 09:32:36;;;;;;;27.42;13.63;;;;;;;16.12;100.00;101650.09;5006299;28;20153;-70
2023/06/07 09:35:21;;;;;;;27.73;14.93;;;;;;;16.22;100.00;101667.94;5014645;28;20136;-70
2023/06/07 09:37:55;;;;;;;31.88;14.15;;;;;;;16.30;100.00;101661.75;5012867;28;20107;-71
2023/06/07 09:40:23;;;;;;;30.77;13.93;;;;;;;16.30;100.00;101653.34;5006974;28;20058;-70
2023/06/07 09:42:57;;;;;;;34.78;13.80;;;;;;;16.48;100.00;101661.38;5015513;28;20284;-72
2023/06/07 09:45:25;;;;;;;25.33;13.18;;;;;;;16.46;100.00;101664.63;5004955;28;20145;-71
2023/06/07 09:48:04;;;;;;;27.60;14.05;;;;;;;16.58;100.00;101660.34;5012847;28;20572;-69
2023/06/07 09:50:30;;;;;;;29.67;13.93;;;;;;;16.66;100.00;101662.53;5012092;28;20132;-70
2023/06/07 09:52:58;;;;;;;27.60;14.20;;;;;;;16.74;100.00;101655.53;4989728;28;20042;-70
2023/06/07 09:55:27;;;;;;;30.83;14.65;;;;;;;16.78;100.00;101659.03;5001876;28;20471;-72
2023/06/07 09:57:58;;;;;;;29.17;13.77;;;;;;;16.78;100.00;101656.22;5002237;28;20089;-72
2023/06/07 10:00:25;;;;;;;29.90;15.00;;;;;;;16.86;100.00;101651.22;5017642;28;20072;-70
2023/06/07 10:03:05;;;;;;;26.13;13.55;;;;;;;16.82;100.00;101654.13;5007938;28;20129;-70
2023/06/07 10:05:33;;;;;;;25.95;13.15;;;;;;;16.77;100.00;101649.03;5013213;28;20522;-70
2023/06/07 10:07:59;;;;;;;31.50;15.10;;;;;;;16.79;100.00;101640.97;5002964;28;20057;-69
2023/06/07 10:10:27;;;;;;;23.30;12.73;;;;;;;16.73;100.00;101651.16;5007180;28;20137;-71
2023/06/07 10:12:56;;;;;;;27.77;14.07;;;;;;;16.70;100.00;101649.19;5005085;28;20046;-71
2023/06/07 10:15:28;;;;;;;29.17;17.05;;;;;;;16.69;100.00;101658.06;5004363;28;20053;-70
2023/06/07 10:18:11;;;;;;;31.88;14.35;;;;;;;16.63;100.00;101645.78;5015768;28;20053;-68
2023/06/07 10:20:41;;;;;;;30.42;14.90;;;;;;;16.63;100.00;101649.38;5010099;28;20049;-69
2023/06/07 10:23:13;;;;;;;25.38;13.52;;;;;;;16.57;100.00;101644.69;5010458;28;20471;-71
2023/06/07 10:25:53;;;;;;;30.08;15.95;;;;;;;16.61;100.00;101637.78;5004728;28;20053;-71
2023/06/07 10:28:30;;;;;;;29.00;13.98;;;;;;;16.60;100.00;101629.78;5013682;28;20123;-72
2023/06/07 10:31:04;;;;;;;30.08;14.80;;;;;;;16.70;100.00;101637.19;5013909;28;20139;-71
2023/06/07 10:33:32;;;;;;;31.13;14.27;;;;;;;16.74;100.00;101637.88;5004400;28;20054;-71
2023/06/07 10:35:59;;;;;;;29.02;13.43;;;;;;;16.76;100.00;101632.63;5008647;28;20096;-73
2023/06/07 10:38:30;;;;;;;29.67;15.32;;;;;;;16.78;100.00;101639.38;5014915;28;20073;-71
2023/06/07 10:40:58;;;;;;;32.65;15.50;;;;;;;16.78;100.00;101630.19;5002994;28;20595;-71
2023/06/07 10:43:27;;;;;;;29.15;15.45;;;;;;;16.84;100.00;101637.63;5003226;28;20085;-73
2023/06/07 10:46:23;;;;;;;29.15;16.80;;;;;;;16.84;100.00;101629.19;5007139;28;20046;-71
2023/06/07 10:48:52;;;;;;;44.83;23.63;;;;;;;16.91;100.00;101626.22;5011374;28;20508;-71
2023/06/07 10:51:41;;;;;;;35.03;16.00;;;;;;;16.97;100.00;101635.69;5011180;28;20050;-70
2023/06/07 10:54:08;;;;;;;30.25;16.50;;;;;;;17.05;100.00;101623.03;5016748;28;20054;-70
2023/06/07 10:56:36;;;;;;;29.20;15.68;;;;;;;17.13;100.00;101621.69;5008371;28;20439;-69
2023/06/07 10:59:18;;;;;;;30.40;15.25;;;;;;;17.26;100.00;101613.31;5015803;28;20057;-71
2023/06/07 11:01:49;;;;;;;35.22;17.85;;;;;;;17.34;100.00;101615.47;5007730;28;20073;-69
2023/06/07 11:04:31;;;;;;;31.17;18.52;;;;;;;17.41;100.00;101617.31;5009043;28;20060;-69
2023/06/07 11:07:19;;;;;;;33.72;18.45;;;;;;;17.47;100.00;101617.53;5006236;28;20050;-69
2023/06/07 11:09:48;;;;;;;28.35;14.90;;;;;;;17.59;100.00;101626.06;5021044;28;20156;-67
2023/06/07 11:12:44;;;;;;;33.78;17.13;;;;;;;17.62;100.00;101630.00;5006040;28;20065;-71